Time;durP1;ratioP1;P1;durP2;ratioP2;P2;SDS_P1;SDS_P2;PMS_P1;PMS_P2;Temp;Humidity;BMP_temperature;BMP_pressure;BME280_temperature;BME280_humidity;BME280_pressure;Samples;Min_cycle;Max_cycle;Signal;HPM_P1;HPM_P2
2021/11/03 00:01:32;;;;;;;7.10;4.40;;;;;;;6.49;90.67;95600.10;115813;1190;29451;-84
2021/11/03 00:04:08;;;;;;;7.70;5.10;;;;;;;6.51;90.68;95597.98;115848;1196;22413;-84
2021/11/03 00:06:42;;;;;;;6.50;4.30;;;;;;;6.51;90.52;95592.60;117057;1196;24658;-84
2021/11/03 00:09:13;;;;;;;6.70;4.50;;;;;;;6.53;90.30;95595.63;117118;1196;24160;-84
2021/11/03 00:11:44;;;;;;;8.60;5.50;;;;;;;6.55;90.16;95593.81;115788;1196;25650;-84
2021/11/03 00:14:15;;;;;;;9.30;6.30;;;;;;;6.53;90.33;95596.89;115872;1190;25029;-84
2021/11/03 00:16:44;;;;;;;;;;;;;;;6.51;90.38;95599.13;115858;1196;23267;-84
2021/11/03 00:19:24;;;;;;;8.00;6.10;;;;;;;6.49;90.42;95600.30;115895;1189;23735;-83
2021/11/03 00:21:55;;;;;;;10.70;6.40;;;;;;;6.47;90.66;95606.37;115825;1196;23061;-83
2021/11/03 00:24:24;;;;;;;;;;;;;;;6.44;90.51;95614.60;115846;1190;25415;-83
2021/11/03 00:26:55;;;;;;;10.70;6.30;;;;;;;6.42;90.56;95615.20;115832;1196;25863;-83
2021/11/03 00:29:24;;;;;;;;;;;;;;;6.40;90.57;95619.85;115879;1196;23553;-83
2021/11/03 00:31:55;;;;;;;10.20;6.60;;;;;;;6.39;90.92;95624.03;115733;1196;24830;-83
2021/11/03 00:34:25;;;;;;;9.40;6.00;;;;;;;6.36;90.96;95629.05;115843;1196;25821;-82
2021/11/03 00:36:54;;;;;;;;;;;;;;;6.34;91.01;95629.33;115899;1196;28168;-83
2021/11/03 00:39:26;;;;;;;11.40;6.70;;;;;;;6.29;91.12;95631.51;115818;1195;24318;-83
2021/11/03 00:41:57;;;;;;;9.20;6.00;;;;;;;6.28;91.11;95639.05;115775;1197;22659;-82
2021/11/03 00:44:28;;;;;;;11.60;6.70;;;;;;;6.28;91.26;95637.73;115768;1197;22493;-83
2021/11/03 00:46:59;;;;;;;7.50;5.40;;;;;;;6.27;91.22;95641.05;115778;1197;23781;-83
2021/11/03 00:49:29;;;;;;;9.00;5.60;;;;;;;6.25;91.29;95642.08;115782;1197;22967;-83
2021/11/03 00:52:00;;;;;;;11.60;6.70;;;;;;;6.25;91.41;95644.45;115761;1190;23363;-84
2021/11/03 00:54:31;;;;;;;9.20;5.80;;;;;;;6.24;91.47;95646.14;115711;1190;25154;-83
2021/11/03 00:57:02;;;;;;;8.80;5.50;;;;;;;6.24;91.55;95646.52;115785;1196;24058;-83
2021/11/03 00:59:32;;;;;;;7.80;5.80;;;;;;;6.23;91.53;95641.35;115696;1197;23554;-84
2021/11/03 01:02:04;;;;;;;9.30;5.90;;;;;;;6.23;91.39;95644.67;115695;1190;22654;-85
2021/11/03 01:04:35;;;;;;;8.50;5.70;;;;;;;6.24;91.58;95645.13;115797;1197;25736;-83
2021/11/03 01:07:06;;;;;;;10.10;6.30;;;;;;;6.23;91.49;95643.15;115757;1197;24400;-83
2021/11/03 01:09:37;;;;;;;11.90;6.80;;;;;;;6.22;91.56;95645.41;115789;1197;23752;-84
2021/11/03 01:12:09;;;;;;;9.50;5.40;;;;;;;6.20;91.39;95655.22;115820;1196;23549;-84
2021/11/03 01:14:40;;;;;;;7.10;4.90;;;;;;;6.19;91.49;95659.74;115787;1196;23617;-84
2021/11/03 01:17:11;;;;;;;10.20;6.10;;;;;;;6.18;91.47;95661.85;115801;1196;27860;-84
2021/11/03 01:19:53;;;;;;;9.60;5.50;;;;;;;6.18;91.60;95658.85;115818;1190;24863;-84
2021/11/03 01:22:24;;;;;;;7.90;5.90;;;;;;;6.19;91.82;95657.10;115773;1197;24153;-84
2021/11/03 01:24:54;;;;;;;9.20;5.20;;;;;;;6.19;91.50;95659.85;115782;1196;25292;-83
2021/11/03 01:27:23;;;;;;;;;;;;;;;6.18;91.40;95661.00;115838;1196;24892;-84
2021/11/03 01:29:54;;;;;;;7.10;4.20;;;;;;;6.16;91.37;95668.81;115794;1196;23834;-84
2021/11/03 01:32:25;;;;;;;7.30;5.20;;;;;;;6.13;91.45;95673.89;115826;1196;24391;-84
2021/11/03 01:34:54;;;;;;;;;;;;;;;6.10;91.38;95672.80;115821;1196;25453;-84
2021/11/03 01:37:25;;;;;;;9.70;5.40;;;;;;;6.04;91.33;95671.25;115801;1196;25083;-84
2021/11/03 01:39:56;;;;;;;7.80;5.30;;;;;;;6.00;91.18;95671.33;115840;1196;24872;-84
2021/11/03 01:42:26;;;;;;;7.10;5.30;;;;;;;5.95;91.03;95671.95;115835;1189;25249;-84
2021/11/03 01:44:57;;;;;;;9.10;5.50;;;;;;;5.90;90.95;95666.69;115786;1196;26875;-84
2021/11/03 01:47:45;;;;;;;7.90;4.80;;;;;;;5.86;90.92;95669.10;115791;1195;25002;-82
2021/11/03 01:50:24;;;;;;;7.80;5.10;;;;;;;5.82;90.85;95668.92;115741;1197;28581;-84
2021/11/03 01:53:01;;;;;;;6.20;4.50;;;;;;;5.77;90.93;95671.52;115781;1190;23902;-84
2021/11/03 01:55:33;;;;;;;6.70;4.50;;;;;;;5.72;90.82;95679.02;115752;1197;24313;-84
2021/11/03 01:58:11;;;;;;;8.80;4.60;;;;;;;5.65;90.77;95685.58;115777;1197;23479;-84
2021/11/03 02:00:45;;;;;;;7.70;4.30;;;;;;;5.61;90.68;95686.19;115822;1197;26667;-84
2021/11/03 02:03:21;;;;;;;11.20;5.10;;;;;;;5.64;90.71;95682.21;115801;1192;38068;-83
2021/11/03 02:05:57;;;;;;;8.80;4.90;;;;;;;5.59;90.51;95679.37;115771;1197;23576;-83
2021/11/03 02:08:29;;;;;;;7.60;4.50;;;;;;;5.55;90.56;95678.09;115813;1189;24986;-83
2021/11/03 02:11:00;;;;;;;9.10;5.00;;;;;;;5.50;90.58;95677.10;115812;1190;28976;-83
2021/11/03 02:13:32;;;;;;;9.10;5.80;;;;;;;5.45;90.62;95677.01;115762;1197;27274;-83
2021/11/03 02:16:02;;;;;;;9.00;5.00;;;;;;;5.41;90.90;95676.71;115802;1197;24892;-84
2021/11/03 02:18:35;;;;;;;7.70;4.80;;;;;;;5.36;91.04;95686.61;115838;1190;24476;-84
2021/11/03 02:21:07;;;;;;;8.20;5.00;;;;;;;5.33;91.26;95682.87;115764;1197;32031;-83
2021/11/03 02:23:45;;;;;;;7.00;4.70;;;;;;;5.37;91.37;95684.88;115817;1197;24295;-83
2021/11/03 02:26:21;;;;;;;7.30;4.60;;;;;;;5.39;91.41;95690.45;115859;1196;26713;-83
2021/11/03 02:28:52;;;;;;;7.50;5.40;;;;;;;5.38;91.44;95694.77;115786;1197;23615;-83
2021/11/03 02:31:41;;;;;;;6.20;4.30;;;;;;;5.41;91.32;95703.52;115711;1197;26258;-84
2021/11/03 02:34:18;;;;;;;6.90;4.40;;;;;;;5.40;91.20;95707.31;115751;1197;24373;-83
2021/11/03 02:36:58;;;;;;;7.00;4.30;;;;;;;5.46;91.31;95705.23;115851;1189;22425;-83
2021/11/03 02:39:37;;;;;;;5.80;4.00;;;;;;;5.48;91.00;95699.38;115804;1190;24497;-84
2021/11/03 02:42:09;;;;;;;5.20;3.20;;;;;;;5.53;90.88;95698.45;115847;1196;25150;-84
2021/11/03 02:44:42;;;;;;;6.80;4.20;;;;;;;5.59;90.61;95696.14;115843;1195;29190;-84
2021/11/03 02:47:13;;;;;;;9.00;4.50;;;;;;;5.60;90.12;95698.77;115844;1196;23321;-84
2021/11/03 02:49:44;;;;;;;5.80;4.10;;;;;;;5.53;89.77;95699.34;115849;1196;25433;-83
2021/11/03 02:52:18;;;;;;;5.00;3.70;;;;;;;5.47;89.74;95692.35;115793;1196;52667;-83
2021/11/03 02:54:50;;;;;;;5.50;3.70;;;;;;;5.50;89.76;95697.45;115724;1196;57730;-83
2021/11/03 02:57:23;;;;;;;7.50;4.90;;;;;;;5.59;89.71;95693.16;115572;1190;54803;-82
2021/11/03 02:59:54;;;;;;;7.10;4.40;;;;;;;5.59;89.34;95695.62;115590;1196;66077;-83
2021/11/03 03:02:25;;;;;;;5.10;3.30;;;;;;;5.58;89.24;95687.95;115664;1196;71803;-83
2021/11/03 03:04:57;;;;;;;6.90;4.60;;;;;;;5.61;89.11;95692.09;115667;1196;55887;-84
2021/11/03 03:07:28;;;;;;;6.70;4.80;;;;;;;5.57;88.89;95690.17;115642;1196;55964;-83
2021/11/03 03:10:00;;;;;;;7.30;5.10;;;;;;;5.45;88.51;95690.38;115624;1196;57862;-83
2021/11/03 03:12:35;;;;;;;8.50;5.60;;;;;;;5.30;88.66;95689.04;115687;1182;63284;-83
2021/11/03 03:15:07;;;;;;;9.70;5.70;;;;;;;5.19;88.63;95693.84;115756;1196;59100;-82
2021/11/03 03:17:39;;;;;;;8.30;5.50;;;;;;;5.09;88.86;95696.13;115657;1196;55023;-83
2021/11/03 03:20:14;;;;;;;8.90;5.80;;;;;;;5.01;89.03;95699.61;115679;1196;55787;-82
2021/11/03 03:22:44;;;;;;;8.00;5.60;;;;;;;4.95;89.09;95706.50;115660;1196;56272;-83
2021/11/03 03:25:16;;;;;;;9.00;5.40;;;;;;;4.92;89.48;95709.48;114783;1180;1227842;-82
2021/11/03 03:27:47;;;;;;;7.80;5.20;;;;;;;4.89;89.44;95708.86;115886;1196;49984;-82
2021/11/03 03:30:18;;;;;;;8.30;4.90;;;;;;;4.81;89.59;95711.02;115769;1196;57638;-82
2021/11/03 03:32:49;;;;;;;6.90;4.70;;;;;;;4.76;89.56;95710.16;115778;1196;56501;-82
2021/11/03 03:35:20;;;;;;;7.20;4.80;;;;;;;4.75;89.63;95714.32;115830;1190;54755;-82
2021/11/03 03:37:51;;;;;;;5.70;4.00;;;;;;;4.76;89.83;95716.63;115786;1196;54005;-82
2021/11/03 03:40:22;;;;;;;6.40;4.30;;;;;;;4.77;89.93;95718.63;115802;1196;54872;-82
2021/11/03 03:42:52;;;;;;;7.30;4.60;;;;;;;4.77;90.16;95721.30;115852;1190;23074;-82
2021/11/03 03:45:22;;;;;;;;;;;;;;;4.78;90.10;95724.77;115810;1189;25294;-81
2021/11/03 03:47:52;;;;;;;7.80;4.60;;;;;;;4.79;90.29;95733.81;115816;1196;25015;-82
2021/11/03 03:50:21;;;;;;;;;;;;;;;4.81;90.26;95737.48;115805;1196;25802;-82
2021/11/03 03:52:52;;;;;;;7.60;4.20;;;;;;;4.78;90.02;95737.80;115815;1196;23891;-81
2021/11/03 03:55:21;;;;;;;;;;;;;;;4.77;89.87;95740.25;115833;1196;23268;-82
2021/11/03 03:57:52;;;;;;;6.50;4.40;;;;;;;4.76;90.04;95738.95;115832;1190;25544;-82
2021/11/03 04:00:22;;;;;;;;;;;;;;;4.78;90.10;95741.31;115792;1190;24098;-83
2021/11/03 04:02:53;;;;;;;7.50;3.60;;;;;;;4.78;89.90;95738.01;115733;1196;25922;-84
2021/11/03 04:05:25;;;;;;;5.20;2.90;;;;;;;4.78;89.81;95737.42;115764;1196;25264;-84
2021/11/03 04:07:56;;;;;;;3.80;2.80;;;;;;;4.92;89.62;95734.96;115780;1196;26484;-83
2021/11/03 04:10:25;;;;;;;;;;;;;;;5.04;89.55;95736.27;115799;1196;25519;-81
2021/11/03 04:12:55;;;;;;;4.90;2.80;;;;;;;5.17;89.13;95740.46;115835;1196;23868;-85
2021/11/03 04:15:24;;;;;;;;;;;;;;;5.27;88.74;95739.98;115843;1189;23671;-84
2021/11/03 04:17:55;;;;;;;4.70;2.90;;;;;;;5.43;88.35;95748.89;115771;1191;33705;-83
2021/11/03 04:20:26;;;;;;;4.70;3.10;;;;;;;5.41;87.86;95754.09;115741;1184;24019;-84
2021/11/03 04:22:57;;;;;;;6.30;4.00;;;;;;;5.28;87.55;95754.85;115797;1196;25626;-83
2021/11/03 04:25:27;;;;;;;6.90;4.20;;;;;;;5.20;87.44;95751.96;115816;1196;36735;-83
2021/11/03 04:27:58;;;;;;;7.70;4.00;;;;;;;5.12;87.60;95755.65;115869;1196;24666;-84
2021/11/03 04:30:30;;;;;;;5.60;3.80;;;;;;;5.03;87.51;95758.44;115878;1196;27076;-84
2021/11/03 04:33:01;;;;;;;6.60;3.70;;;;;;;4.97;87.63;95766.06;116138;1181;25350;-85
2021/11/03 04:35:32;;;;;;;7.00;4.30;;;;;;;4.99;88.07;95768.59;116523;1189;24543;-84
2021/11/03 04:38:03;;;;;;;5.40;4.00;;;;;;;5.00;88.21;95765.48;116280;1196;24165;-84
2021/11/03 04:40:35;;;;;;;6.80;4.50;;;;;;;4.99;88.08;95766.16;115735;1190;25006;-84
2021/11/03 04:43:05;;;;;;;7.30;5.00;;;;;;;5.00;88.07;95764.59;115816;1196;25426;-84
2021/11/03 04:45:36;;;;;;;8.70;4.50;;;;;;;4.98;88.05;95763.34;115803;1196;23429;-84
2021/11/03 04:48:09;;;;;;;6.80;4.40;;;;;;;4.98;88.09;95760.92;115785;1196;24896;-83
2021/11/03 04:50:40;;;;;;;4.90;3.60;;;;;;;4.95;88.09;95763.13;115736;1196;24969;-83
2021/11/03 04:53:11;;;;;;;6.90;4.00;;;;;;;4.92;88.02;95764.58;115817;1189;25514;-83
2021/11/03 04:55:46;;;;;;;6.20;4.20;;;;;;;4.91;88.14;95765.05;115778;1196;24809;-83
2021/11/03 04:58:17;;;;;;;6.70;4.60;;;;;;;4.88;88.01;95767.77;115865;1196;24888;-83
2021/11/03 05:00:53;;;;;;;7.00;3.80;;;;;;;4.87;87.92;95773.14;115818;1189;25468;-83
2021/11/03 05:03:24;;;;;;;7.00;4.40;;;;;;;4.82;87.94;95774.46;115724;1189;60191;-83
2021/11/03 05:06:00;;;;;;;8.30;4.40;;;;;;;4.79;88.03;95778.77;115627;1181;67808;-82
2021/11/03 05:08:32;;;;;;;8.30;4.60;;;;;;;4.78;87.98;95780.23;115694;1196;54052;-82
2021/11/03 05:11:04;;;;;;;8.80;5.00;;;;;;;4.76;88.22;95782.48;115649;1190;60530;-82
2021/11/03 05:13:35;;;;;;;6.30;3.60;;;;;;;4.75;88.13;95784.05;115770;1196;70401;-82
2021/11/03 05:16:06;;;;;;;6.60;4.10;;;;;;;4.73;88.10;95781.05;115742;1188;57700;-82
2021/11/03 05:18:37;;;;;;;7.50;4.60;;;;;;;4.72;88.14;95777.86;115705;1196;56148;-82
2021/11/03 05:21:08;;;;;;;6.50;3.80;;;;;;;4.71;88.15;95778.75;115853;1196;26140;-82
2021/11/03 05:23:39;;;;;;;5.90;3.60;;;;;;;4.70;88.13;95779.39;115814;1196;26353;-82
2021/11/03 05:26:11;;;;;;;6.70;3.90;;;;;;;4.72;88.26;95778.23;115847;1196;31702;-84
2021/11/03 05:28:49;;;;;;;7.30;3.90;;;;;;;4.72;88.15;95779.80;115787;1196;24747;-84
2021/11/03 05:31:20;;;;;;;5.50;3.20;;;;;;;4.73;88.24;95782.48;115928;1196;23632;-84
2021/11/03 05:33:51;;;;;;;5.40;3.80;;;;;;;4.79;88.20;95780.81;115817;1190;24700;-83
2021/11/03 05:36:22;;;;;;;;;;;;;;;4.81;88.18;95784.23;115801;1196;24748;-83
2021/11/03 05:38:53;;;;;;;5.00;3.50;;;;;;;4.79;88.05;95784.60;115825;1196;24445;-83
2021/11/03 05:41:24;;;;;;;5.60;3.50;;;;;;;4.80;88.04;95776.67;115781;1196;23899;-84
2021/11/03 05:43:55;;;;;;;6.70;3.80;;;;;;;4.83;88.02;95775.05;115844;1196;26365;-84
2021/11/03 05:46:33;;;;;;;6.30;3.50;;;;;;;4.84;87.98;95775.93;115880;1196;24460;-84
2021/11/03 05:49:09;;;;;;;5.20;3.20;;;;;;;4.87;87.91;95782.13;115766;1196;25749;-83
2021/11/03 05:51:41;;;;;;;6.10;3.20;;;;;;;4.98;87.98;95788.08;115889;1196;24457;-83
2021/11/03 05:54:12;;;;;;;6.80;3.80;;;;;;;5.35;87.94;95789.89;115797;1196;23512;-82
2021/11/03 05:56:43;;;;;;;4.60;3.30;;;;;;;5.76;87.67;95793.19;115720;1196;47284;-82
2021/11/03 05:59:15;;;;;;;4.80;3.70;;;;;;;6.15;86.70;95796.50;115628;1190;23560;-82
2021/11/03 06:01:46;;;;;;;4.80;3.10;;;;;;;6.45;85.83;95802.27;115903;1196;25457;-84
2021/11/03 06:04:17;;;;;;;4.70;3.00;;;;;;;6.73;85.07;95801.68;115969;1196;25971;-84
2021/11/03 06:06:48;;;;;;;5.90;2.90;;;;;;;7.06;84.28;95801.98;115557;1196;24252;-84
2021/11/03 06:09:19;;;;;;;3.40;2.50;;;;;;;7.39;83.64;95809.47;115949;1196;25668;-85
2021/11/03 06:11:52;;;;;;;4.20;3.00;;;;;;;7.73;82.52;95805.34;115955;1196;23439;-84
2021/11/03 06:14:22;;;;;;;5.50;3.00;;;;;;;8.00;81.80;95807.82;115910;1196;24938;-85
2021/11/03 06:16:51;;;;;;;;;;;;;;;8.17;80.95;95808.95;115904;1196;24591;-84
2021/11/03 06:19:22;;;;;;;4.80;2.90;;;;;;;8.43;80.33;95807.98;115886;1194;24627;-86
2021/11/03 06:21:57;;;;;;;3.50;2.50;;;;;;;8.63;79.25;95805.96;115897;1196;24919;-83
2021/11/03 06:24:33;;;;;;;2.80;2.10;;;;;;;8.87;78.84;95812.35;115864;1196;24127;-84
2021/11/03 06:27:05;;;;;;;3.10;2.30;;;;;;;9.14;77.93;95819.20;115914;1189;33176;-85
2021/11/03 06:29:35;;;;;;;3.80;2.30;;;;;;;9.34;77.29;95820.31;115720;1196;38619;-83
2021/11/03 06:32:05;;;;;;;;;;;;;;;9.56;76.78;95824.29;115890;1196;24887;-84
2021/11/03 06:34:37;;;;;;;2.60;2.10;;;;;;;9.82;75.74;95829.09;115892;1196;26360;-85
2021/11/03 06:37:07;;;;;;;3.40;2.50;;;;;;;9.87;74.69;95836.79;115856;1196;53167;-84
2021/11/03 06:39:38;;;;;;;2.10;1.80;;;;;;;10.07;74.51;95839.34;115873;1196;23037;-84
2021/11/03 06:42:09;;;;;;;2.60;2.00;;;;;;;10.28;73.39;95842.62;115849;1189;25209;-84
2021/11/03 06:44:40;;;;;;;2.20;1.90;;;;;;;10.51;73.30;95843.08;115965;1196;24213;-84
2021/11/03 06:47:09;;;;;;;;;;;;;;;10.91;72.39;95844.83;115817;1196;25143;-84
2021/11/03 06:49:39;;;;;;;3.20;2.20;;;;;;;11.14;71.58;95843.48;115560;1196;25211;-84
2021/11/03 06:52:10;;;;;;;3.10;2.10;;;;;;;11.42;70.63;95845.27;115838;1190;23933;-84
2021/11/03 06:54:42;;;;;;;3.20;2.10;;;;;;;11.69;70.28;95841.58;115828;1196;24981;-84
2021/11/03 06:57:12;;;;;;;3.00;2.30;;;;;;;11.91;69.08;95844.52;115860;1196;33743;-85
2021/11/03 06:59:44;;;;;;;;;;;;;;;11.87;68.08;95840.95;115890;1195;23984;-85
2021/11/03 07:02:18;;;;;;;4.10;2.00;;;;;;;11.94;67.45;95845.35;115513;1196;48544;-84
2021/11/03 07:04:49;;;;;;;3.00;2.20;;;;;;;12.04;66.80;95850.08;115959;1189;25529;-84
2021/11/03 07:07:18;;;;;;;;;;;;;;;12.06;65.78;95850.87;116109;1196;23140;-83
2021/11/03 07:09:48;;;;;;;2.40;2.10;;;;;;;12.06;64.90;95852.03;115952;1196;22872;-84
2021/11/03 07:12:18;;;;;;;;;;;;;;;12.05;64.22;95847.77;115968;1190;38627;-84
2021/11/03 07:14:48;;;;;;;4.00;2.00;;;;;;;12.09;64.63;95849.66;115942;1195;32925;-84
2021/11/03 07:17:17;;;;;;;;;;;;;;;12.33;64.57;95852.05;115988;1196;24606;-84
2021/11/03 07:19:48;;;;;;;2.90;2.20;;;;;;;12.54;63.96;95854.21;115976;1191;24088;-83
2021/11/03 07:22:22;;;;;;;2.30;1.60;;;;;;;12.63;63.28;95857.05;115949;1196;25563;-84
2021/11/03 07:24:54;;;;;;;2.00;1.70;;;;;;;12.86;63.20;95858.67;115891;1196;24161;-83
2021/11/03 07:27:24;;;;;;;3.50;1.70;;;;;;;13.15;62.39;95855.83;115886;1196;48156;-84
2021/11/03 07:29:55;;;;;;;4.90;1.60;;;;;;;13.32;62.18;95854.29;116006;1196;32279;-84
2021/11/03 07:32:27;;;;;;;3.10;1.70;;;;;;;13.49;61.06;95855.86;115902;1196;24373;-84
2021/11/03 07:34:57;;;;;;;1.70;1.40;;;;;;;13.51;60.53;95860.91;115899;1196;24817;-83
2021/11/03 07:37:28;;;;;;;1.70;1.50;;;;;;;13.63;60.18;95865.31;115879;1196;27501;-83
2021/11/03 07:39:57;;;;;;;;;;;;;;;13.63;59.06;95872.10;115892;1196;25052;-84
2021/11/03 07:42:28;;;;;;;2.30;1.30;;;;;;;13.66;59.44;95868.98;115874;1190;28192;-84
2021/11/03 07:44:58;;;;;;;1.40;1.30;;;;;;;13.77;59.23;95875.91;115825;1196;24712;-84
2021/11/03 07:47:27;;;;;;;;;;;;;;;13.72;58.49;95872.92;115935;1196;23764;-83
2021/11/03 07:49:58;;;;;;;2.20;1.60;;;;;;;13.57;58.66;95880.80;116008;1196;23914;-83
2021/11/03 07:52:27;;;;;;;;;;;;;;;13.75;58.88;95882.39;115928;1196;23344;-83
2021/11/03 07:54:58;;;;;;;2.90;1.70;;;;;;;13.91;58.56;95886.52;116013;1196;23129;-83
2021/11/03 07:57:27;;;;;;;;;;;;;;;13.94;57.69;95888.54;115960;1196;32504;-84
2021/11/03 07:59:57;;;;;;;2.90;1.70;;;;;;;13.78;57.49;95888.89;115924;1190;26560;-84
2021/11/03 08:02:28;;;;;;;3.40;1.70;;;;;;;13.63;57.74;95894.21;115870;1189;23058;-84
2021/11/03 08:04:57;;;;;;;;;;;;;;;13.48;57.53;95897.14;115858;1196;23207;-84
2021/11/03 08:07:28;;;;;;;2.20;1.50;;;;;;;13.33;57.59;95899.66;115834;1196;23320;-83
2021/11/03 08:09:59;;;;;;;2.40;1.60;;;;;;;13.10;57.36;95901.21;115701;1193;25273;-85
2021/11/03 08:12:28;;;;;;;;;;;;;;;12.85;57.28;95904.13;115829;1195;24108;-84
2021/11/03 08:14:58;;;;;;;2.00;1.50;;;;;;;12.78;58.74;95901.98;115473;1190;25517;-85
2021/11/03 08:17:27;;;;;;;;;;;;;;;12.39;57.87;95896.41;115826;1195;26971;-85
2021/11/03 08:20:09;;;;;;;2.50;1.50;;;;;;;11.68;58.62;95906.09;115883;1196;25198;-85
2021/11/03 08:22:47;;;;;;;3.40;1.60;;;;;;;11.31;60.10;95919.98;115909;1196;39097;-84
2021/11/03 08:25:17;;;;;;;3.70;1.60;;;;;;;11.13;60.28;95922.42;115826;1191;34123;-84
2021/11/03 08:27:46;;;;;;;;;;;;;;;11.18;61.23;95919.63;115888;1196;24142;-85
2021/11/03 08:30:18;;;;;;;2.50;1.80;;;;;;;11.11;61.49;95919.81;115941;1191;26165;-86
2021/11/03 08:32:52;;;;;;;5.60;1.40;;;;;;;11.07;61.83;95921.12;115889;1190;23842;-86
2021/11/03 08:35:26;;;;;;;1.50;1.40;;;;;;;10.94;60.95;95917.76;115840;1196;26758;-85
2021/11/03 08:38:03;;;;;;;4.00;1.60;;;;;;;10.83;61.25;95917.45;115838;1196;26495;-85
2021/11/03 08:40:35;;;;;;;1.20;1.10;;;;;;;10.68;62.05;95923.09;115852;1195;26649;-84
2021/11/03 08:43:18;;;;;;;2.00;1.20;;;;;;;10.68;62.21;95925.83;115907;1189;25357;-85
2021/11/03 08:45:49;;;;;;;2.20;1.40;;;;;;;10.79;62.58;95919.86;116104;1196;24895;-84
2021/11/03 08:48:18;;;;;;;;;;;;;;;10.91;62.64;95915.10;115909;1196;32988;-84
2021/11/03 08:50:49;;;;;;;2.50;1.40;;;;;;;10.88;62.33;95910.92;115838;1196;28040;-84
2021/11/03 08:53:21;;;;;;;2.50;1.50;;;;;;;10.95;62.76;95912.73;115896;1189;26943;-84
2021/11/03 08:55:53;;;;;;;3.00;1.50;;;;;;;11.03;62.55;95913.00;115976;1196;22441;-81
2021/11/03 08:58:27;;;;;;;3.10;1.70;;;;;;;11.11;62.51;95919.61;115990;1189;37146;-82
2021/11/03 09:00:59;;;;;;;2.20;1.50;;;;;;;11.18;62.18;95923.66;115942;1190;23811;-82
2021/11/03 09:03:30;;;;;;;2.70;1.70;;;;;;;11.23;62.02;95925.35;115992;1196;25940;-82
2021/11/03 09:06:01;;;;;;;1.70;1.20;;;;;;;11.25;62.19;95924.66;116212;1196;25155;-83
2021/11/03 09:08:32;;;;;;;2.10;1.10;;;;;;;11.30;61.77;95921.22;116303;1196;23724;-82
2021/11/03 09:11:04;;;;;;;2.20;1.20;;;;;;;11.31;61.88;95922.16;116231;1196;25963;-82
2021/11/03 09:13:35;;;;;;;1.40;1.00;;;;;;;11.31;61.99;95919.04;115885;1189;22614;-82
2021/11/03 09:16:07;;;;;;;2.00;1.10;;;;;;;11.22;61.56;95924.89;115887;1196;22540;-84
2021/11/03 09:18:38;;;;;;;1.30;1.00;;;;;;;11.26;62.64;95928.67;115851;1190;22935;-82
2021/11/03 09:21:09;;;;;;;2.50;1.30;;;;;;;11.44;62.13;95937.70;115853;1196;23426;-83
2021/11/03 09:23:40;;;;;;;1.60;1.10;;;;;;;11.40;61.70;95928.86;115742;1196;24405;-82
2021/11/03 09:26:11;;;;;;;2.50;0.90;;;;;;;11.43;61.76;95933.48;115829;1196;23906;-82
2021/11/03 09:28:42;;;;;;;2.20;1.30;;;;;;;11.43;61.88;95933.05;115770;1196;27362;-82
2021/11/03 09:31:11;;;;;;;;;;;;;;;11.59;62.09;95927.63;115812;1196;22915;-82
2021/11/03 09:33:43;;;;;;;1.60;1.40;;;;;;;11.65;61.95;95921.49;115807;1195;22591;-82
2021/11/03 09:36:20;;;;;;;3.00;0.90;;;;;;;11.67;61.25;95925.16;115746;1196;23386;-82
2021/11/03 09:38:51;;;;;;;1.20;1.10;;;;;;;11.63;60.76;95922.70;115853;1196;26326;-82
2021/11/03 09:41:26;;;;;;;1.50;1.00;;;;;;;11.62;60.63;95911.27;115782;1190;28328;-81
2021/11/03 09:44:01;;;;;;;1.40;0.80;;;;;;;11.67;60.59;95908.76;115784;1190;24519;-82
2021/11/03 09:46:37;;;;;;;2.00;1.00;;;;;;;11.80;60.40;95908.55;115847;1195;24067;-83
2021/11/03 09:49:24;;;;;;;2.50;0.90;;;;;;;11.93;60.09;95911.65;115827;1196;26725;-82
2021/11/03 09:51:57;;;;;;;1.20;1.00;;;;;;;12.10;60.07;95911.72;115863;1196;24038;-81
2021/11/03 09:54:33;;;;;;;2.50;1.20;;;;;;;12.18;59.40;95911.77;115865;1189;23154;-83
2021/11/03 09:57:17;;;;;;;1.70;1.00;;;;;;;12.21;59.43;95917.05;115809;1193;25117;-82
2021/11/03 09:59:56;;;;;;;1.50;1.10;;;;;;;12.36;59.82;95915.04;115830;1196;24015;-82
2021/11/03 10:02:44;;;;;;;1.40;1.10;;;;;;;12.43;59.20;95913.64;115834;1196;22869;-83
2021/11/03 10:05:30;;;;;;;2.90;1.10;;;;;;;12.49;59.11;95910.58;115851;1195;23263;-82
2021/11/03 10:08:04;;;;;;;1.80;1.10;;;;;;;12.58;59.16;95912.84;115788;1196;23769;-82
2021/11/03 10:10:39;;;;;;;1.80;1.10;;;;;;;12.71;58.70;95916.18;115824;1190;24307;-83
2021/11/03 10:13:19;;;;;;;2.90;1.40;;;;;;;12.70;58.53;95915.15;115844;1196;24618;-83
2021/11/03 10:15:59;;;;;;;1.10;0.90;;;;;;;12.77;58.82;95918.91;115856;1190;22743;-83
2021/11/03 10:18:32;;;;;;;2.10;1.20;;;;;;;12.81;58.07;95920.15;115829;1190;24628;-82
2021/11/03 10:21:18;;;;;;;2.00;1.30;;;;;;;12.77;57.82;95927.64;115864;1196;27925;-81
2021/11/03 10:23:56;;;;;;;2.10;1.10;;;;;;;12.81;57.72;95923.71;115611;1196;26782;-83
2021/11/03 10:26:33;;;;;;;4.00;1.40;;;;;;;12.84;57.36;95913.30;115788;1196;24417;-83
2021/11/03 10:29:17;;;;;;;1.70;1.40;;;;;;;12.59;56.61;95914.54;115696;1196;24030;-83
2021/11/03 10:31:54;;;;;;;1.90;1.20;;;;;;;12.56;57.66;95908.50;115848;1196;24266;-84
2021/11/03 10:34:29;;;;;;;1.20;1.10;;;;;;;12.65;57.64;95906.17;115556;1190;27406;-84
2021/11/03 10:37:20;;;;;;;3.40;1.30;;;;;;;12.74;56.95;95908.73;115691;1197;25332;-85
2021/11/03 10:40:05;;;;;;;3.00;1.70;;;;;;;12.80;57.56;95901.80;115858;1196;23910;-85
2021/11/03 10:42:48;;;;;;;4.00;1.30;;;;;;;12.97;57.28;95902.94;115843;1190;26073;-86
2021/11/03 10:45:25;;;;;;;2.70;1.30;;;;;;;12.90;56.11;95902.96;115918;1196;25207;-86
2021/11/03 10:48:10;;;;;;;2.10;1.20;;;;;;;12.89;56.40;95897.51;115900;1191;26050;-87
2021/11/03 10:50:43;;;;;;;1.90;1.10;;;;;;;13.00;56.25;95893.31;115855;1195;25025;-87
2021/11/03 10:53:25;;;;;;;0.80;0.70;;;;;;;13.08;55.68;95895.27;115828;1196;28148;-85
2021/11/03 10:56:04;;;;;;;1.30;0.90;;;;;;;13.04;55.13;95892.93;115831;1196;25405;-84
2021/11/03 10:58:40;;;;;;;1.20;0.90;;;;;;;12.98;54.54;95892.91;115934;1196;26266;-85
2021/11/03 11:01:13;;;;;;;1.20;0.80;;;;;;;12.98;54.93;95894.23;115771;1196;25944;-85
2021/11/03 11:03:54;;;;;;;1.60;0.90;;;;;;;13.09;54.98;95890.20;115946;1190;25302;-86
2021/11/03 11:06:26;;;;;;;;;;;;;;;13.25;55.03;95892.23;115786;1190;47680;-86
2021/11/03 11:09:01;;;;;;;2.10;0.80;;;;;;;13.34;54.32;95885.13;115783;1196;54814;-83
2021/11/03 11:11:44;;;;;;;1.20;0.80;;;;;;;13.32;54.28;95887.48;115926;1189;31520;-85
2021/11/03 11:14:20;;;;;;;0.80;0.50;;;;;;;13.29;53.36;95881.84;115813;1196;33222;-82
2021/11/03 11:16:57;;;;;;;0.80;0.60;;;;;;;12.93;53.12;95880.12;115889;1196;49251;-82
2021/11/03 11:19:42;;;;;;;1.40;0.80;;;;;;;12.66;53.11;95870.23;115850;1196;23148;-81
2021/11/03 11:22:30;;;;;;;2.80;0.70;;;;;;;12.74;53.77;95868.59;115787;1196;48106;-82
2021/11/03 11:25:12;;;;;;;1.10;0.60;;;;;;;12.94;54.05;95863.22;115864;1196;22978;-82
2021/11/03 11:27:53;;;;;;;0.60;0.50;;;;;;;13.11;53.65;95852.97;115857;1190;22576;-83
2021/11/03 11:30:25;;;;;;;1.40;0.60;;;;;;;13.22;53.22;95852.65;115761;1196;25114;-82
2021/11/03 11:33:03;;;;;;;0.70;0.50;;;;;;;13.18;51.87;95851.73;115772;1196;23931;-82
2021/11/03 11:35:53;;;;;;;1.10;0.70;;;;;;;13.04;52.19;95852.66;115813;1196;24551;-82
2021/11/03 11:38:45;;;;;;;0.60;0.60;;;;;;;13.01;52.74;95851.89;115811;1196;51483;-83
2021/11/03 11:41:19;;;;;;;0.40;0.40;;;;;;;13.02;53.06;95854.52;115783;1196;50549;-83
2021/11/03 11:43:57;;;;;;;0.70;0.40;;;;;;;13.20;53.10;95853.68;115942;1196;27390;-82
2021/11/03 11:46:32;;;;;;;1.10;0.50;;;;;;;13.40;52.65;95843.38;115922;1196;30145;-82
2021/11/03 11:49:11;;;;;;;1.70;0.70;;;;;;;13.64;53.00;95841.29;115809;1190;30079;-80
2021/11/03 11:51:48;;;;;;;1.40;0.80;;;;;;;13.75;52.02;95838.16;115783;1189;24028;-81
2021/11/03 11:54:30;;;;;;;1.30;0.70;;;;;;;13.67;51.78;95840.29;115836;1189;30814;-80
2021/11/03 11:57:25;;;;;;;1.10;0.80;;;;;;;13.51;51.81;95834.41;115861;1189;24052;-80
2021/11/03 12:00:12;;;;;;;0.60;0.50;;;;;;;13.32;51.93;95833.52;115820;1196;23498;-80
2021/11/03 12:03:17;;;;;;;1.70;0.90;;;;;;;13.30;52.32;95833.52;115719;1196;25776;-81
2021/11/03 12:09:18;;;;;;;0.80;0.70;;;;;;;13.56;53.26;95822.00;113106;1214;566045;-81